createdAt,value
2019-02-12T00:00:25.487Z,22.60
2019-02-12T00:01:25.508Z,20.50
2019-02-12T00:02:25.533Z,23.70
2019-02-12T00:03:25.559Z,24.00
2019-02-12T00:04:25.582Z,19.00
2019-02-12T00:05:25.616Z,26.90
2019-02-12T00:06:25.635Z,21.50
2019-02-12T00:07:25.658Z,24.00
2019-02-12T00:08:25.683Z,24.20
2019-02-12T00:09:25.710Z,25.10
2019-02-12T00:10:25.733Z,24.70
2019-02-12T00:11:25.755Z,23.30
2019-02-12T00:12:25.781Z,25.50
2019-02-12T00:13:25.806Z,28.50
2019-02-12T00:14:25.831Z,30.20
2019-02-12T00:15:25.857Z,29.70
2019-02-12T00:16:25.880Z,24.50
2019-02-12T00:17:25.905Z,25.20
2019-02-12T00:18:25.929Z,33.20
2019-02-12T00:19:25.955Z,29.50
2019-02-12T00:20:25.979Z,34.80
2019-02-12T00:21:26.004Z,28.00
2019-02-12T00:22:26.030Z,28.60
2019-02-12T00:23:26.056Z,33.70
2019-02-12T00:24:26.080Z,29.50
2019-02-12T00:25:26.102Z,29.30
2019-02-12T00:26:26.134Z,28.70
2019-02-12T00:27:26.155Z,29.60
2019-02-12T00:28:26.178Z,31.20
2019-02-12T00:29:26.203Z,28.10
2019-02-12T00:30:26.229Z,24.90
2019-02-12T00:31:26.259Z,24.10
2019-02-12T00:32:26.278Z,31.50
2019-02-12T00:33:26.352Z,26.20
2019-02-12T00:34:26.329Z,28.70
2019-02-12T00:35:26.352Z,35.00
2019-02-12T00:36:26.377Z,28.30
2019-02-12T00:37:26.402Z,24.20
2019-02-12T00:38:26.430Z,30.00
2019-02-12T00:39:26.452Z,25.50
2019-02-12T00:40:26.477Z,25.20
2019-02-12T00:41:26.502Z,25.30
2019-02-12T00:42:26.527Z,27.40
2019-02-12T00:43:26.551Z,27.70
2019-02-12T00:44:26.626Z,27.90
2019-02-12T00:45:26.602Z,27.00
2019-02-12T00:46:26.626Z,26.80
2019-02-12T00:47:26.651Z,24.40
2019-02-12T00:48:26.676Z,27.20
2019-02-12T00:49:26.701Z,26.50
2019-02-12T00:50:26.726Z,29.50
2019-02-12T00:51:26.751Z,31.40
2019-02-12T00:52:26.775Z,26.20
2019-02-12T00:53:26.800Z,28.90
2019-02-12T00:54:26.827Z,28.60
2019-02-12T00:55:26.851Z,29.20
2019-02-12T00:56:26.877Z,26.90
2019-02-12T00:57:26.899Z,27.60
2019-02-12T00:58:26.925Z,28.00
2019-02-12T00:59:26.949Z,25.30
2019-02-12T01:00:26.976Z,28.60
2019-02-12T01:01:26.999Z,26.50
2019-02-12T01:02:27.026Z,26.90
2019-02-12T01:03:27.049Z,27.00
2019-02-12T01:04:27.073Z,32.20
2019-02-12T01:05:27.099Z,31.50
2019-02-12T01:06:27.123Z,29.20
2019-02-12T01:07:27.149Z,28.40
2019-02-12T01:08:27.175Z,25.50
2019-02-12T01:09:27.200Z,30.40
2019-02-12T01:10:27.227Z,28.20
2019-02-12T01:11:27.278Z,29.00
2019-02-12T01:12:27.272Z,28.10
2019-02-12T01:13:27.298Z,30.90
2019-02-12T01:14:27.322Z,28.90
2019-02-12T01:15:27.348Z,32.70
2019-02-12T01:16:27.373Z,33.80
2019-02-12T01:17:27.397Z,38.00
2019-02-12T01:18:27.424Z,28.00
2019-02-12T01:19:27.451Z,30.40
2019-02-12T01:20:27.479Z,33.90
2019-02-12T01:21:27.496Z,24.70
2019-02-12T01:22:27.522Z,28.10
2019-02-12T01:23:27.548Z,30.00
2019-02-12T01:24:27.573Z,30.10
2019-02-12T01:25:27.598Z,30.40
2019-02-12T01:26:27.622Z,31.60
2019-02-12T01:27:27.647Z,31.50
2019-02-12T01:28:27.672Z,35.50
2019-02-12T01:29:27.697Z,35.00
2019-02-12T01:30:27.722Z,33.80
2019-02-12T01:31:27.749Z,32.90
2019-02-12T01:32:27.813Z,38.40
2019-02-12T01:33:27.798Z,32.40
2019-02-12T01:34:27.822Z,32.00
2019-02-12T01:35:27.849Z,31.00
2019-02-12T01:36:27.873Z,29.60
2019-02-12T01:37:27.897Z,32.20
2019-02-12T01:38:27.922Z,28.60
2019-02-12T01:39:27.947Z,29.40
2019-02-12T01:40:27.972Z,29.60
2019-02-12T01:41:27.997Z,32.10
2019-02-12T01:42:28.023Z,32.90
2019-02-12T01:43:28.048Z,33.40
2019-02-12T01:44:28.073Z,30.10
2019-02-12T01:45:28.101Z,29.30
2019-02-12T01:46:28.122Z,35.30
2019-02-12T01:47:28.148Z,36.70
2019-02-12T01:48:28.172Z,36.00
2019-02-12T01:49:28.197Z,32.50
2019-02-12T01:50:28.222Z,29.10
2019-02-12T01:51:34.919Z,30.70
2019-02-12T01:52:28.272Z,32.60
2019-02-12T01:53:28.299Z,29.40
2019-02-12T01:54:28.322Z,26.40
2019-02-12T01:55:28.347Z,29.20
2019-02-12T01:56:28.372Z,28.00
2019-02-12T01:57:28.397Z,29.90
2019-02-12T01:58:28.423Z,27.60
2019-02-12T01:59:28.448Z,28.60
2019-02-12T02:00:28.475Z,27.50
2019-02-12T02:01:28.497Z,27.40
2019-02-12T02:02:28.526Z,28.60
2019-02-12T02:03:28.547Z,28.30
2019-02-12T02:04:28.572Z,26.00
2019-02-12T02:05:28.597Z,31.10
2019-02-12T02:06:28.628Z,28.80
2019-02-12T02:07:28.651Z,31.80
2019-02-12T02:08:28.673Z,30.90
2019-02-12T02:09:28.697Z,31.60
2019-02-12T02:10:28.726Z,32.80
2019-02-12T02:11:28.747Z,30.10
2019-02-12T02:12:28.772Z,28.00
2019-02-12T02:13:28.797Z,29.70
2019-02-12T02:14:28.823Z,32.20
2019-02-12T02:15:28.848Z,25.10
2019-02-12T02:16:28.872Z,27.60
2019-02-12T02:17:28.897Z,31.60
2019-02-12T02:18:28.924Z,27.10
2019-02-12T02:19:28.947Z,25.40
2019-02-12T02:20:28.972Z,28.90
2019-02-12T04:05:58.973Z,32.00
2019-02-12T04:06:58.997Z,33.00
2019-02-12T04:07:59.023Z,33.60
2019-02-12T04:08:59.087Z,32.00
2019-02-12T04:09:59.075Z,24.00
2019-02-12T04:10:59.096Z,36.30
2019-02-12T04:11:59.122Z,31.30
2019-02-12T04:12:59.146Z,37.00
2019-02-12T04:13:59.169Z,37.40
2019-02-12T04:14:59.195Z,34.00
2019-02-12T04:15:59.223Z,37.60
2019-02-12T04:16:59.244Z,38.10
2019-02-12T04:17:59.268Z,34.50
2019-02-12T04:18:59.291Z,37.10
2019-02-12T04:19:59.324Z,39.20
2019-02-12T04:20:59.348Z,37.80
2019-02-12T04:21:59.365Z,32.00
2019-02-12T04:22:59.389Z,27.20
2019-02-12T04:23:59.417Z,25.00
2019-02-12T04:24:59.439Z,32.70
2019-02-12T04:25:59.462Z,26.70
2019-02-12T04:26:59.487Z,28.20
2019-02-12T04:27:59.510Z,30.70
2019-02-12T04:28:59.536Z,28.20
2019-02-12T04:29:59.561Z,28.40
2019-02-12T04:30:59.584Z,29.50
2019-02-12T04:31:59.608Z,32.10
2019-02-12T04:32:59.641Z,33.20
2019-02-12T04:33:59.657Z,33.50
2019-02-12T04:34:59.684Z,27.50
2019-02-12T04:35:59.705Z,27.60
2019-02-12T04:36:59.731Z,31.40
2019-02-12T04:37:59.759Z,31.10
2019-02-12T04:38:59.781Z,31.10
2019-02-12T04:39:59.802Z,37.60
2019-02-12T04:40:59.829Z,35.90
2019-02-12T04:41:59.853Z,31.00
2019-02-12T04:42:59.876Z,30.30
2019-02-12T04:43:59.900Z,34.40
2019-02-12T04:44:59.925Z,28.60
2019-02-12T04:45:59.950Z,25.20
2019-02-12T04:46:59.974Z,31.90
2019-02-12T04:48:00.001Z,31.20
2019-02-12T04:49:00.022Z,36.40
2019-02-12T04:50:00.048Z,62.90
2019-02-12T04:51:00.072Z,47.20
2019-02-12T04:52:00.094Z,44.40
2019-02-12T04:53:00.119Z,42.30
2019-02-12T04:54:00.145Z,42.50
2019-02-12T04:55:00.393Z,40.50
2019-02-12T04:56:00.191Z,38.20
2019-02-12T04:57:00.216Z,47.40
2019-02-12T04:58:00.290Z,42.40
2019-02-12T04:59:00.266Z,43.00
2019-02-12T05:00:00.314Z,49.10
2019-02-12T05:01:00.365Z,43.80
2019-02-12T05:02:00.339Z,42.40
2019-02-12T05:03:00.364Z,41.90
2019-02-12T05:04:00.386Z,33.80
2019-02-12T05:05:00.411Z,34.90
2019-02-12T05:06:00.435Z,30.00
2019-02-12T05:07:00.458Z,32.20
2019-02-12T05:08:00.490Z,36.50
2019-02-12T05:09:00.507Z,28.20
2019-02-12T05:10:00.532Z,28.00
2019-02-12T05:11:00.556Z,27.50
2019-02-12T05:12:00.580Z,28.40
2019-02-12T05:13:00.604Z,35.20
2019-02-12T05:14:00.628Z,29.30
2019-02-12T05:15:00.655Z,37.30
2019-02-12T05:16:00.676Z,36.90
2019-02-12T05:17:00.701Z,39.10
2019-02-12T05:18:00.725Z,45.00
2019-02-12T05:19:00.751Z,37.30
2019-02-12T05:20:00.772Z,34.20
2019-02-12T05:21:00.797Z,30.60
2019-02-12T05:22:00.822Z,30.10
2019-02-12T05:23:00.847Z,33.70
2019-02-12T05:24:00.871Z,32.10
2019-02-12T05:25:00.895Z,31.10
2019-02-12T05:26:00.920Z,32.80
2019-02-12T05:27:00.946Z,43.60
2019-02-12T05:28:00.971Z,37.80
2019-02-12T05:29:00.993Z,43.00
2019-02-12T05:30:01.018Z,47.20
2019-02-12T05:31:01.042Z,42.40
2019-02-12T05:32:01.068Z,47.20
2019-02-12T05:33:01.089Z,48.70
2019-02-12T05:34:01.129Z,39.30
2019-02-12T05:35:01.142Z,40.80
2019-02-12T05:36:01.185Z,45.60
2019-02-12T05:37:01.188Z,50.20
2019-02-12T05:38:01.211Z,52.20
2019-02-12T05:39:01.235Z,50.60
2019-02-12T05:40:01.261Z,56.60
2019-02-12T05:41:01.286Z,47.90
2019-02-12T05:42:01.327Z,49.30
2019-02-12T05:43:01.333Z,59.40
2019-02-12T05:44:01.358Z,49.80
2019-02-12T05:45:01.414Z,43.70
2019-02-12T05:46:01.409Z,44.20
2019-02-12T05:47:01.431Z,45.60
2019-02-12T05:48:01.459Z,48.50
2019-02-12T05:49:01.484Z,42.90
2019-02-12T05:50:01.505Z,60.60
2019-02-12T05:51:01.530Z,62.90
2019-02-12T05:52:01.555Z,59.50
2019-02-12T05:53:01.580Z,62.80
2019-02-12T05:54:01.603Z,63.10
2019-02-12T05:55:01.626Z,94.20
2019-02-12T05:56:01.652Z,105.70
2019-02-12T05:57:01.675Z,69.10
2019-02-12T05:58:01.702Z,76.10
2019-02-12T05:59:01.724Z,134.30
2019-02-12T06:00:01.772Z,186.60
2019-02-12T06:01:01.773Z,92.40
2019-02-12T06:02:01.798Z,85.40
2019-02-12T06:03:01.829Z,101.30
2019-02-12T06:04:01.845Z,131.00
2019-02-12T06:05:01.871Z,117.60
2019-02-12T06:06:01.902Z,118.90
2019-02-12T06:07:01.921Z,128.90
2019-02-12T06:08:01.943Z,143.20
2019-02-12T06:09:01.968Z,134.70
2019-02-12T06:10:02.006Z,132.30
2019-02-12T06:11:02.017Z,130.10
2019-02-12T06:12:02.039Z,175.20
2019-02-12T06:13:02.070Z,147.40
2019-02-12T06:14:02.095Z,189.00
2019-02-12T06:15:02.119Z,126.00
2019-02-12T06:16:02.139Z,204.60
2019-02-12T06:17:02.164Z,224.20
2019-02-12T06:18:02.188Z,200.20
2019-02-12T06:19:02.212Z,190.30
2019-02-12T06:20:02.236Z,268.70
2019-02-12T06:21:02.292Z,256.80
2019-02-12T06:22:02.288Z,214.90
2019-02-12T06:23:04.124Z,232.30
2019-02-12T06:24:02.333Z,196.30
2019-02-12T06:25:02.358Z,205.80
2019-02-12T06:26:02.404Z,222.10
2019-02-12T06:27:02.409Z,189.80
2019-02-12T06:28:02.434Z,113.00
2019-02-12T06:29:02.516Z,113.70
2019-02-12T06:30:02.482Z,124.30
2019-02-12T06:31:02.508Z,159.40
2019-02-12T06:32:02.528Z,118.70
2019-02-12T06:33:07.489Z,70.80
2019-02-12T06:34:02.582Z,122.40
2019-02-12T06:35:02.602Z,96.70
2019-02-12T06:36:02.626Z,70.90
2019-02-12T06:37:02.651Z,109.50
2019-02-12T06:38:02.775Z,131.30
2019-02-12T06:39:02.700Z,132.50
2019-02-12T06:40:02.725Z,104.50
2019-02-12T06:41:02.793Z,206.20
2019-02-12T06:42:02.773Z,155.30
2019-02-12T06:43:02.797Z,76.20
2019-02-12T06:44:02.821Z,76.30
2019-02-12T06:45:02.846Z,70.40
2019-02-12T06:46:02.873Z,87.10
2019-02-12T06:47:02.898Z,98.00
2019-02-12T06:48:02.920Z,82.50
2019-02-12T06:49:02.943Z,91.30
2019-02-12T06:50:02.967Z,100.80
2019-02-12T06:51:02.994Z,95.20
2019-02-12T06:52:03.015Z,94.00
2019-02-12T06:53:12.109Z,107.10
2019-02-12T06:54:03.064Z,95.30
2019-02-12T06:55:03.107Z,105.60
2019-02-12T06:56:03.113Z,94.90
2019-02-12T06:57:03.136Z,118.20
2019-02-12T06:58:03.162Z,79.30
2019-02-12T06:59:03.186Z,90.80
2019-02-12T07:00:03.234Z,71.50
2019-02-12T07:01:03.236Z,85.00
2019-02-12T07:02:03.258Z,81.20
2019-02-12T07:03:03.287Z,75.90
2019-02-12T07:04:03.307Z,82.10
2019-02-12T07:05:03.334Z,71.10
2019-02-12T07:06:03.357Z,75.90
2019-02-12T07:07:03.381Z,63.00
2019-02-12T07:08:03.405Z,71.90
2019-02-12T07:09:03.433Z,74.10
2019-02-12T07:10:03.453Z,69.70
2019-02-12T07:11:03.479Z,60.90
2019-02-12T07:12:03.502Z,61.20
2019-02-12T07:13:03.526Z,44.90
2019-02-12T07:14:03.551Z,53.60
2019-02-12T07:15:03.574Z,57.60
2019-02-12T07:16:03.600Z,56.20
2019-02-12T07:17:03.622Z,64.60
2019-02-12T07:18:03.646Z,111.10
2019-02-12T07:19:03.675Z,90.80
2019-02-12T07:20:03.699Z,124.00
2019-02-12T07:21:03.722Z,111.60
2019-02-12T07:22:03.743Z,91.00
2019-02-12T07:23:03.768Z,80.40
2019-02-12T07:24:03.793Z,73.70
2019-02-12T07:25:03.816Z,60.50
2019-02-12T07:26:03.841Z,63.70
2019-02-12T07:27:03.866Z,66.70
2019-02-12T07:28:03.889Z,76.80
2019-02-12T07:29:03.914Z,91.60
2019-02-12T07:30:03.939Z,62.90
2019-02-12T07:31:03.964Z,83.00
2019-02-12T07:32:03.988Z,90.00
2019-02-12T07:33:12.879Z,64.70
2019-02-12T07:34:04.036Z,76.70
2019-02-12T07:35:04.062Z,90.20
2019-02-12T07:36:04.103Z,77.50
2019-02-12T07:37:04.122Z,65.90
2019-02-12T07:38:04.138Z,71.30
2019-02-12T07:39:04.159Z,59.60
2019-02-12T07:40:04.182Z,59.20
2019-02-12T07:41:04.211Z,69.40
2019-02-12T07:42:04.235Z,67.90
2019-02-12T07:43:04.255Z,56.40
2019-02-12T07:44:04.285Z,52.90
2019-02-12T07:45:04.304Z,43.70
2019-02-12T07:46:04.330Z,36.40
2019-02-12T07:47:04.374Z,31.50
2019-02-12T07:48:04.377Z,22.80
2019-02-12T07:49:04.402Z,22.40
2019-02-12T07:50:04.427Z,30.90
2019-02-12T07:51:04.454Z,34.90
2019-02-12T07:52:04.475Z,34.20
2019-02-12T07:53:04.500Z,35.40
2019-02-12T07:54:04.526Z,35.50
2019-02-12T07:55:04.551Z,39.40
2019-02-12T07:56:04.575Z,38.60
2019-02-12T07:57:04.599Z,40.20
2019-02-12T07:58:04.624Z,32.80
2019-02-12T07:59:04.651Z,37.90
2019-02-12T08:00:04.675Z,40.40
2019-02-12T08:01:04.698Z,38.50
2019-02-12T08:02:04.721Z,45.20
2019-02-12T08:03:04.748Z,45.90
2019-02-12T08:04:04.770Z,53.80
2019-02-12T08:05:04.796Z,49.40
2019-02-12T08:06:04.822Z,55.40
2019-02-12T08:07:04.846Z,46.20
2019-02-12T08:08:04.868Z,51.50
2019-02-12T08:09:04.907Z,49.10
2019-02-12T08:10:04.918Z,48.30
2019-02-12T08:11:04.946Z,50.70
2019-02-12T08:12:04.971Z,51.50
2019-02-12T08:13:04.993Z,50.50
2019-02-12T08:14:05.018Z,55.50
2019-02-12T08:15:05.042Z,50.50
2019-02-12T08:16:05.071Z,44.70
2019-02-12T08:17:05.092Z,40.50
2019-02-12T08:18:05.131Z,33.10
2019-02-12T08:19:05.141Z,40.30
2019-02-12T08:20:05.166Z,30.00
2019-02-12T08:21:05.194Z,37.80
2019-02-12T08:22:05.215Z,39.00
2019-02-12T08:23:05.241Z,39.90
2019-02-12T08:24:05.265Z,44.20
2019-02-12T08:25:05.293Z,40.80
2019-02-12T08:26:05.316Z,39.20
2019-02-12T08:27:05.341Z,36.90
2019-02-12T08:28:05.365Z,37.10
2019-02-12T08:29:05.391Z,37.20
2019-02-12T08:30:05.415Z,42.20
2019-02-12T08:31:05.441Z,34.10
2019-02-12T08:32:05.464Z,38.90
2019-02-12T08:33:05.493Z,40.70
2019-02-12T08:34:05.531Z,38.40
2019-02-12T08:35:05.540Z,47.90
2019-02-12T08:36:05.564Z,49.50
2019-02-12T08:37:05.594Z,42.30
2019-02-12T08:38:05.615Z,45.80
2019-02-12T08:39:05.639Z,37.00
2019-02-12T08:40:05.665Z,51.00
2019-02-12T08:41:05.694Z,44.70
2019-02-12T08:42:05.716Z,44.40
2019-02-12T08:43:05.743Z,38.20
2019-02-12T08:44:05.766Z,44.40
2019-02-12T08:45:05.792Z,45.00
2019-02-12T08:46:05.817Z,45.00
2019-02-12T08:47:05.842Z,44.20
2019-02-12T08:48:05.867Z,43.00
2019-02-12T08:49:05.893Z,43.30
2019-02-12T08:50:05.918Z,45.60
2019-02-12T08:51:05.943Z,44.00
2019-02-12T08:52:05.970Z,48.80
2019-02-12T08:53:06.002Z,40.10
2019-02-12T08:54:06.020Z,43.50
2019-02-12T08:55:06.099Z,42.20
2019-02-12T08:56:06.073Z,41.80
2019-02-12T08:57:06.119Z,40.20
2019-02-12T08:58:06.124Z,42.30
2019-02-12T08:59:06.194Z,44.90
2019-02-12T09:00:06.178Z,39.70
2019-02-12T09:01:06.200Z,43.00
2019-02-12T09:02:06.229Z,41.70
2019-02-12T09:03:06.258Z,44.50
2019-02-12T09:04:06.279Z,44.60
2019-02-12T09:05:06.359Z,40.50
2019-02-12T09:06:06.335Z,38.30
2019-02-12T09:07:06.380Z,44.50
2019-02-12T09:08:06.386Z,40.90
2019-02-12T09:09:06.412Z,40.10
2019-02-12T09:10:06.446Z,38.60
2019-02-12T09:11:06.469Z,38.20
2019-02-12T09:12:06.493Z,30.00
2019-02-12T09:13:06.519Z,35.20
2019-02-12T09:14:06.545Z,32.20
2019-02-12T09:15:06.574Z,33.30
2019-02-12T09:16:06.600Z,32.50
2019-02-12T09:17:06.627Z,23.50
2019-02-12T09:18:06.668Z,23.20
2019-02-12T09:19:06.732Z,23.10
2019-02-12T09:20:06.709Z,23.80
2019-02-12T09:21:06.744Z,20.50
2019-02-12T09:22:06.766Z,21.30
2019-02-12T09:23:06.803Z,21.20
2019-02-12T09:24:06.820Z,27.10
2019-02-12T09:25:06.852Z,25.50
2019-02-12T09:26:06.876Z,28.00
2019-02-12T09:27:06.910Z,23.20
2019-02-12T09:28:06.931Z,25.20
2019-02-12T09:29:06.963Z,26.20
2019-02-12T09:30:06.989Z,28.00
2019-02-12T09:31:07.018Z,29.90
2019-02-12T09:32:07.044Z,26.50
2019-02-12T09:33:07.084Z,26.10
2019-02-12T09:34:07.102Z,26.60
2019-02-12T09:35:07.130Z,26.00
2019-02-12T09:36:07.157Z,30.80
2019-02-12T09:37:07.186Z,28.10
2019-02-12T09:38:07.216Z,22.20
2019-02-12T09:39:07.243Z,29.10
2019-02-12T09:40:07.269Z,26.90
2019-02-12T09:41:07.349Z,24.10
2019-02-12T09:42:07.331Z,24.10
2019-02-12T09:43:07.358Z,26.70
2019-02-12T09:44:07.386Z,26.80
2019-02-12T09:45:07.419Z,25.00
2019-02-12T09:46:07.445Z,25.40
2019-02-12T09:47:07.475Z,30.10
2019-02-12T09:48:07.499Z,27.80
2019-02-12T09:49:07.528Z,26.20
2019-02-12T09:50:07.556Z,32.90
2019-02-12T09:51:07.584Z,25.90
2019-02-12T09:52:07.677Z,23.10
2019-02-12T09:53:07.641Z,28.60
2019-02-12T09:54:09.027Z,27.10
2019-02-12T09:55:07.707Z,23.90
2019-02-12T09:56:07.777Z,32.50
2019-02-12T09:57:07.756Z,26.90
2019-02-12T09:58:07.819Z,28.10
2019-02-12T09:59:07.853Z,27.30
2019-02-12T10:00:08.272Z,27.70
2019-02-12T10:01:07.872Z,32.40
2019-02-12T10:02:07.901Z,27.60
2019-02-12T10:03:07.962Z,28.80
2019-02-12T10:04:07.960Z,27.10
2019-02-12T10:05:07.991Z,26.90
2019-02-12T10:06:08.020Z,26.40
2019-02-12T10:07:08.047Z,30.70
2019-02-12T10:08:08.144Z,32.30
2019-02-12T10:09:08.178Z,30.60
2019-02-12T10:10:08.201Z,28.50
2019-02-12T10:11:08.268Z,33.50
2019-02-12T10:12:08.279Z,29.50
2019-02-12T10:13:08.239Z,26.70
2019-02-12T10:14:08.254Z,30.20
2019-02-12T10:15:08.287Z,31.00
2019-02-12T10:16:08.315Z,37.30
2019-02-12T10:17:08.345Z,40.50
2019-02-12T10:18:08.376Z,36.20
2019-02-12T10:19:08.406Z,29.80
2019-02-12T10:20:08.461Z,31.00
2019-02-12T10:21:08.470Z,30.00
2019-02-12T10:22:08.502Z,27.20
2019-02-12T10:23:08.534Z,30.90
2019-02-12T10:24:19.051Z,28.00
2019-02-12T10:25:08.620Z,30.00
2019-02-12T10:26:08.876Z,31.50
2019-02-12T10:27:08.657Z,30.60
2019-02-12T10:28:08.929Z,28.50
2019-02-12T10:29:08.749Z,32.80
2019-02-12T10:30:08.773Z,26.10
2019-02-12T10:31:08.782Z,30.20
2019-02-12T10:32:09.129Z,31.30
2019-02-12T10:33:08.845Z,26.10
2019-02-12T10:34:08.878Z,29.10
2019-02-12T10:35:08.907Z,21.20
2019-02-12T10:36:08.936Z,23.30
2019-02-12T10:37:08.969Z,24.50
2019-02-12T10:38:09.001Z,21.90
2019-02-12T10:39:09.032Z,18.50
2019-02-12T10:40:09.066Z,21.90
2019-02-12T10:41:09.094Z,23.30
2019-02-12T10:42:09.125Z,25.10
2019-02-12T10:43:09.160Z,19.50
2019-02-12T10:44:09.185Z,20.10
2019-02-12T10:45:09.219Z,19.70
2019-02-12T10:46:09.249Z,22.10
2019-02-12T10:47:09.281Z,19.60
2019-02-12T10:48:09.313Z,18.70
2019-02-12T10:49:09.345Z,22.90
2019-02-12T10:50:09.373Z,18.10
2019-02-12T10:51:09.405Z,20.10
2019-02-12T10:52:09.446Z,22.50
2019-02-12T10:53:09.470Z,23.20
2019-02-12T10:54:11.985Z,24.00
2019-02-12T10:55:09.531Z,25.70
2019-02-12T10:56:09.560Z,26.20
2019-02-12T10:57:09.588Z,23.00
2019-02-12T10:58:09.625Z,26.00
2019-02-12T10:59:09.655Z,21.80
2019-02-12T11:00:09.682Z,18.70
2019-02-12T11:01:09.712Z,21.60
2019-02-12T11:02:09.745Z,25.60
2019-02-12T11:03:09.776Z,26.40
2019-02-12T11:04:09.809Z,28.60
2019-02-12T11:05:09.868Z,29.10
2019-02-12T11:06:09.867Z,23.20
2019-02-12T11:07:09.897Z,27.50
2019-02-12T11:08:09.927Z,34.20
2019-02-12T11:09:09.958Z,30.70
2019-02-12T11:10:09.999Z,27.00
2019-02-12T11:11:10.018Z,28.70
2019-02-12T11:12:10.049Z,26.00
2019-02-12T11:13:10.079Z,26.70
2019-02-12T11:14:10.111Z,29.90
2019-02-12T11:15:10.159Z,22.30
2019-02-12T11:16:10.170Z,25.40
2019-02-12T11:17:10.201Z,23.70
2019-02-12T11:18:10.231Z,25.20
2019-02-12T11:19:10.260Z,27.50
2019-02-12T11:20:10.295Z,24.80
2019-02-12T11:21:12.150Z,24.10
2019-02-12T11:22:10.355Z,27.90
2019-02-12T11:23:11.044Z,21.30
2019-02-12T11:24:10.419Z,23.20
2019-02-12T11:25:10.450Z,18.50
2019-02-12T11:26:10.475Z,24.40
2019-02-12T11:27:10.507Z,31.00
2019-02-12T11:28:11.840Z,24.20
2019-02-12T11:29:10.567Z,24.80
2019-02-12T11:30:10.597Z,23.20
2019-02-12T11:31:10.627Z,25.30
2019-02-12T11:32:10.670Z,27.20
2019-02-12T11:33:10.691Z,27.30
2019-02-12T11:34:10.722Z,22.70
2019-02-12T11:35:10.752Z,20.30
2019-02-12T11:36:10.784Z,21.10
2019-02-12T11:37:10.816Z,19.30
2019-02-12T11:38:10.846Z,22.30
2019-02-12T11:39:10.877Z,19.70
2019-02-12T11:40:10.907Z,25.40
2019-02-12T11:41:10.940Z,19.00
2019-02-12T11:42:10.969Z,20.60
2019-02-12T11:43:11.001Z,27.30
2019-02-12T11:44:11.032Z,28.20
2019-02-12T11:45:11.064Z,20.40
2019-02-12T11:46:11.096Z,25.70
2019-02-12T11:47:11.128Z,28.10
2019-02-12T11:48:11.159Z,23.40
2019-02-12T11:49:11.191Z,18.00
2019-02-12T11:50:11.223Z,18.70
2019-02-12T11:51:11.281Z,18.70
2019-02-12T11:52:11.287Z,21.50
2019-02-12T11:53:11.368Z,26.50
2019-02-12T11:54:11.351Z,22.90
2019-02-12T11:55:11.385Z,23.10
2019-02-12T11:56:11.414Z,29.10
2019-02-12T11:57:11.447Z,26.60
2019-02-12T11:58:11.479Z,27.80
2019-02-12T11:59:11.512Z,23.50
2019-02-12T12:00:11.542Z,22.70
2019-02-12T12:01:11.574Z,24.60
2019-02-12T12:02:11.607Z,22.90
2019-02-12T12:03:11.641Z,25.40
2019-02-12T12:04:11.671Z,21.80
2019-02-12T12:05:11.701Z,26.20
2019-02-12T12:06:11.736Z,27.20
2019-02-12T12:07:11.767Z,28.40
2019-02-12T12:08:11.797Z,23.90
2019-02-12T12:09:11.828Z,21.60
2019-02-12T12:10:11.861Z,19.40
2019-02-12T12:11:11.892Z,21.70
2019-02-12T12:12:11.923Z,27.60
2019-02-12T12:13:11.955Z,24.40
2019-02-12T12:14:11.986Z,23.00
2019-02-12T12:15:12.018Z,24.10
2019-02-12T12:16:12.049Z,24.20
2019-02-12T12:17:12.082Z,20.90
2019-02-12T12:18:12.114Z,19.00
2019-02-12T12:19:12.147Z,23.10
2019-02-12T12:20:12.180Z,20.80
2019-02-12T12:21:12.237Z,20.00
2019-02-12T12:22:12.245Z,23.00
2019-02-12T12:23:13.727Z,23.30
2019-02-12T12:24:12.358Z,23.90
2019-02-12T12:25:12.339Z,18.50
2019-02-12T12:26:12.374Z,19.30
2019-02-12T12:27:12.405Z,22.10
2019-02-12T12:28:12.437Z,26.50
2019-02-12T12:29:12.471Z,19.40
2019-02-12T12:30:12.502Z,18.80
2019-02-12T12:31:12.535Z,17.70
2019-02-12T12:32:12.566Z,18.00
2019-02-12T12:33:12.600Z,19.80
2019-02-12T12:34:12.632Z,18.50
2019-02-12T12:35:12.667Z,26.00
2019-02-12T12:36:12.698Z,16.20
2019-02-12T12:37:12.733Z,25.10
2019-02-12T12:38:12.762Z,21.40
2019-02-12T12:39:12.797Z,14.20
2019-02-12T12:40:12.828Z,18.00
2019-02-12T12:41:12.861Z,25.10
2019-02-12T12:42:12.896Z,16.80
2019-02-12T12:43:12.931Z,16.30
2019-02-12T12:44:12.957Z,17.60
2019-02-12T12:45:12.991Z,19.70
2019-02-12T12:46:13.023Z,17.70
2019-02-12T12:47:13.182Z,17.40
2019-02-12T12:48:13.092Z,20.10
2019-02-12T12:49:13.120Z,20.30
2019-02-12T12:50:13.161Z,16.10
2019-02-12T12:51:13.186Z,16.70
2019-02-12T12:52:13.216Z,18.50
2019-02-12T12:53:13.254Z,15.50
2019-02-12T12:54:13.290Z,22.70
2019-02-12T12:55:13.321Z,19.10
2019-02-12T12:56:13.348Z,16.60
2019-02-12T12:57:13.383Z,20.00
2019-02-12T12:58:13.416Z,16.00
2019-02-12T12:59:13.450Z,18.60
2019-02-12T13:00:13.484Z,18.50
2019-02-12T13:01:13.557Z,19.90
2019-02-12T13:02:13.603Z,21.70
2019-02-12T13:03:13.630Z,18.80
2019-02-12T13:04:13.622Z,18.30
2019-02-12T13:05:13.660Z,13.50
2019-02-12T13:06:13.703Z,16.40
2019-02-12T13:07:13.733Z,12.30
2019-02-12T13:08:13.769Z,21.90
2019-02-12T13:09:13.807Z,19.00
2019-02-12T13:10:13.848Z,18.60
2019-02-12T13:11:13.882Z,17.80
2019-02-12T13:12:13.921Z,12.90
2019-02-12T13:13:13.958Z,15.10
2019-02-12T13:14:14.000Z,15.80
2019-02-12T13:15:14.037Z,14.10
2019-02-12T13:16:14.079Z,17.20
2019-02-12T13:17:14.116Z,15.30
2019-02-12T13:18:14.155Z,20.60
2019-02-12T13:19:14.192Z,14.90
2019-02-12T13:20:14.231Z,12.00
2019-02-12T13:21:14.271Z,11.70
2019-02-12T13:22:14.312Z,13.30
2019-02-12T13:23:14.348Z,14.40
2019-02-12T13:24:14.386Z,11.10
2019-02-12T13:25:14.423Z,16.50
2019-02-12T13:26:14.463Z,18.60
2019-02-12T13:27:14.501Z,14.50
2019-02-12T13:28:14.535Z,10.30
2019-02-12T13:29:14.573Z,13.30
2019-02-12T13:30:14.609Z,13.80
2019-02-12T13:31:14.645Z,17.80
2019-02-12T13:32:14.681Z,15.00
2019-02-12T13:33:14.717Z,15.70
2019-02-12T13:34:14.754Z,16.40
2019-02-12T13:35:14.788Z,12.90
2019-02-12T13:36:14.824Z,12.70
2019-02-12T13:37:14.863Z,11.60
2019-02-12T13:38:14.896Z,13.20
2019-02-12T13:39:14.931Z,12.40
2019-02-12T13:40:14.966Z,14.60
2019-02-12T13:41:14.998Z,9.50
2019-02-12T13:42:15.037Z,13.00
2019-02-12T13:43:15.078Z,11.90
2019-02-12T13:44:15.103Z,11.80
2019-02-12T13:45:15.139Z,12.40
2019-02-12T13:46:15.172Z,13.20
2019-02-12T13:47:15.207Z,17.60
2019-02-12T13:48:15.239Z,10.10
2019-02-12T13:49:15.274Z,14.50
2019-02-12T13:50:15.308Z,9.30
2019-02-12T13:51:15.342Z,16.60
2019-02-12T13:52:15.375Z,13.60
2019-02-12T13:53:15.413Z,18.80
2019-02-12T13:54:15.443Z,17.80
2019-02-12T13:55:17.668Z,16.30
2019-02-12T13:56:15.509Z,13.20
2019-02-12T13:57:15.542Z,13.10
2019-02-12T13:58:15.582Z,11.50
2019-02-12T13:59:15.610Z,12.60
2019-02-12T14:00:15.644Z,12.90
2019-02-12T14:01:15.673Z,12.90
2019-02-12T14:02:15.708Z,12.70
2019-02-12T14:03:22.234Z,14.40
2019-02-12T14:04:15.786Z,12.40
2019-02-12T14:05:15.865Z,16.70
2019-02-12T14:06:15.841Z,13.70
2019-02-12T14:07:15.869Z,12.20
2019-02-12T14:08:15.901Z,14.20
2019-02-12T14:09:15.964Z,22.40
2019-02-12T14:10:15.968Z,17.60
2019-02-12T14:11:16.001Z,12.10
2019-02-12T14:12:16.031Z,10.70
2019-02-12T14:13:16.062Z,11.20
2019-02-12T14:14:16.094Z,11.80
2019-02-12T14:15:16.127Z,11.60
2019-02-12T14:16:16.159Z,14.90
2019-02-12T14:17:16.190Z,12.30
2019-02-12T14:18:16.223Z,18.70
2019-02-12T14:19:16.272Z,13.10
2019-02-12T14:20:16.287Z,10.40
2019-02-12T14:21:16.318Z,9.80
2019-02-12T14:22:16.352Z,13.90
2019-02-12T14:23:16.383Z,12.60
2019-02-12T14:24:16.414Z,11.30
2019-02-12T14:25:16.446Z,12.20
2019-02-12T14:26:16.674Z,11.60
2019-02-12T14:27:16.510Z,17.00
2019-02-12T14:28:16.544Z,13.00
2019-02-12T14:29:16.575Z,7.10
2019-02-12T14:30:16.605Z,12.40
2019-02-12T14:31:16.636Z,13.10
2019-02-12T14:32:16.667Z,10.80
2019-02-12T14:33:16.699Z,14.10
2019-02-12T14:34:16.731Z,12.50
2019-02-12T14:35:16.764Z,8.50
2019-02-12T14:36:16.792Z,9.60